Midkiff, West Virginia
Current Conditions -  °F | °C
As of 2:07 PM on Friday 31 Oct 2014 (Local Time) from KHTS Reporting Station
Light Rain Light Rain  
Wind Chill: 43°   Ceiling: 4600
Heat Index: 46°   Visibility: 9mi
Dew Point: 40°   Wind: 6mph
Humidity: 79%   Direction: 220°SW
Pressure: 29.89"   Gusts: NA
Location:  38.18°N, 82.18°W
Report Text: KHTS 311807Z 22005KT 9SM -RA SCT025 OVC046 08/04 A2989 RMK AO2 RAB1755 P0000 T00780044
Loading
Personal Weather Stations






























Interactive Weather Map
Tropical Storm Tracking
New forecast layout! Learn more

10-Day Weather Forecast

Advertisements
Track Severe Weather on mobile